CheckWX is a tool to help pilots better visualize weather data.  It is not intended as a substitute for an official pre-flight weather briefing.

23:47:39 UTC

KPSM TAF
Portsmouth International at Pease Airport
Portsmouth, New Hampshire, USA
KPSM 162320Z 1700/1724 36004KT P6SM FEW200 FM171500 04005KT P6SM BKN015

Nov-17@
00:00 UTC

Nov-17 @ 00:00 UTC

Nov-17@
15:00 UTC

Nov-17 @ 15:00 UTC

KPSM 162320Z 1700/1724 36004KT P6SM FEW200
Wind
  • 360° at 4 KTS
Cloud Levels
  • Few at 20,000' AGL

Nov-17@
15:00 UTC

Nov-17 @ 15:00 UTC

Nov-18@
00:00 UTC

Nov-18 @ 00:00 UTC

FM171500 04005KT P6SM BKN015

From

From Standard forecast or significant change

Wind
  • 040° at 5 KTS
Cloud Levels
  • Broken at 1,500' AGL